Time;durP1;ratioP1;P1;durP2;ratioP2;P2;SDS_P1;SDS_P2;PMS_P1;PMS_P2;Temp;Humidity;BMP_temperature;BMP_pressure;BME280_temperature;BME280_humidity;BME280_pressure;Samples;Min_cycle;Max_cycle;Signal;HPM_P1;HPM_P2
2023/05/30 00:00:31;;;;;;;6.73;3.27;;;;;;;-145.69;100.00;52070.09;5073224;28;20203;-80
2023/05/30 00:02:58;;;;;;;8.07;2.27;;;;;;;-145.69;100.00;52024.56;5073428;28;20234;-80
2023/05/30 00:05:26;;;;;;;5.73;2.97;;;;;;;-145.69;100.00;51992.88;5070504;28;20238;-79
2023/05/30 00:07:52;;;;;;;7.73;3.37;;;;;;;-145.69;100.00;52060.22;5072769;28;20206;-80
2023/05/30 00:10:19;;;;;;;7.13;3.45;;;;;;;-145.69;100.00;52034.47;5069469;28;20430;-79
2023/05/30 00:12:46;;;;;;;9.73;3.67;;;;;;;-145.69;100.00;52016.66;5051945;28;20233;-80
2023/05/30 00:15:13;;;;;;;5.30;2.63;;;;;;;-145.69;100.00;52028.53;5073235;28;20203;-80
2023/05/30 00:17:40;;;;;;;6.03;3.03;;;;;;;-145.69;100.00;52044.38;5057715;28;20207;-80
2023/05/30 00:20:08;;;;;;;4.33;2.67;;;;;;;-145.69;100.00;52028.53;5053310;28;20261;-80
2023/05/30 00:22:38;;;;;;;5.27;3.17;;;;;;;-145.69;100.00;52022.59;5052929;28;20670;-80
2023/05/30 00:25:06;;;;;;;6.27;2.83;;;;;;;-145.69;100.00;52060.22;5053243;28;20234;-80
2023/05/30 00:27:33;;;;;;;6.20;2.97;;;;;;;-145.69;100.00;52026.53;5053068;28;20250;-80
2023/05/30 00:29:59;;;;;;;8.57;2.77;;;;;;;-145.69;100.00;52028.53;5053377;28;20203;-81
2023/05/30 00:32:26;;;;;;;7.30;3.03;;;;;;;-145.69;100.00;52032.47;5052997;28;20658;-81
2023/05/30 00:34:52;;;;;;;10.33;3.00;;;;;;;-145.69;100.00;52074.06;5065706;28;20718;-80
2023/05/30 00:37:19;;;;;;;6.47;3.07;;;;;;;-145.69;100.00;52070.09;5072969;28;20538;-81
2023/05/30 00:39:47;;;;;;;7.77;3.87;;;;;;;-145.69;100.00;52052.28;5073148;28;20194;-81
2023/05/30 00:42:13;;;;;;;6.43;3.20;;;;;;;-145.69;100.00;52026.53;5054661;28;20282;-81
2023/05/30 00:44:40;;;;;;;8.43;3.80;;;;;;;-145.69;100.00;52056.25;5052466;28;20665;-81
2023/05/30 00:47:06;;;;;;;6.67;3.10;;;;;;;-145.69;100.00;52048.31;5052587;28;20203;-80
2023/05/30 00:49:33;;;;;;;6.07;3.00;;;;;;;-145.69;100.00;52042.38;5052718;28;20231;-81
2023/05/30 00:52:00;;;;;;;8.43;3.70;;;;;;;-145.69;100.00;52054.25;5053318;28;20203;-82
2023/05/30 00:54:27;;;;;;;7.83;3.50;;;;;;;-145.69;100.00;52056.25;5072730;28;20592;-80
2023/05/30 00:56:55;;;;;;;13.60;3.33;;;;;;;-145.69;100.00;52016.66;5072447;28;20202;-80
2023/05/30 00:59:22;;;;;;;8.03;3.37;;;;;;;-145.69;100.00;52046.34;5072643;28;20203;-81
2023/05/30 01:01:48;;;;;;;5.20;3.17;;;;;;;-145.69;100.00;52066.16;5072717;28;20194;-81
2023/05/30 01:04:15;;;;;;;7.17;3.07;;;;;;;-145.69;100.00;52042.38;5068955;28;20686;-82
2023/05/30 01:06:42;;;;;;;6.83;3.13;;;;;;;-145.69;100.00;52072.09;5064836;28;20227;-81
2023/05/30 01:09:09;;;;;;;6.63;3.27;;;;;;;-145.69;100.00;52036.44;5056768;28;20231;-82
2023/05/30 01:11:45;;;;;;;9.70;3.37;;;;;;;-145.69;100.00;52050.31;5056553;28;20203;-80
2023/05/30 01:14:18;;;;;;;8.23;3.73;;;;;;;-145.69;100.00;52091.88;5056174;28;20566;-80
2023/05/30 01:16:50;;;;;;;5.87;3.17;;;;;;;-145.69;100.00;52044.38;5075875;28;20585;-81
2023/05/30 01:19:47;;;;;;;5.60;2.97;;;;;;;-145.69;100.00;52044.38;5075902;28;20746;-81
2023/05/30 01:22:32;;;;;;;7.50;3.50;;;;;;;-145.69;100.00;52068.13;5076779;28;20193;-81
2023/05/30 01:25:15;;;;;;;5.50;3.17;;;;;;;-145.69;100.00;52054.25;5076582;28;20234;-81
2023/05/30 01:28:15;;;;;;;13.47;3.80;;;;;;;-145.69;100.00;52032.47;5076553;28;20256;-80
2023/05/30 01:30:45;;;;;;;5.97;3.30;;;;;;;-145.69;100.00;52062.19;5019552;28;20200;-80
2023/05/30 01:33:14;;;;;;;5.90;2.87;;;;;;;-145.69;100.00;52034.47;5056932;28;20195;-80
2023/05/30 01:35:43;;;;;;;5.47;3.13;;;;;;;-145.69;100.00;52091.88;5076332;28;20604;-80
2023/05/30 01:38:10;;;;;;;15.13;3.67;;;;;;;-145.69;100.00;52056.25;5060230;28;20586;-80
2023/05/30 01:40:37;;;;;;;10.23;3.17;;;;;;;-145.69;100.00;52048.31;5075798;28;20654;-80
2023/05/30 01:43:11;;;;;;;6.70;2.83;;;;;;;-145.69;100.00;52050.31;5076267;28;20294;-79
2023/05/30 01:45:47;;;;;;;6.27;3.03;;;;;;;-145.69;100.00;52024.56;5056250;28;20246;-79
2023/05/30 01:48:19;;;;;;;7.90;3.53;;;;;;;-145.69;100.00;52072.09;5056262;28;20222;-80
2023/05/30 01:50:48;;;;;;;9.17;4.10;;;;;;;-145.69;100.00;52066.16;5055731;28;20353;-79
2023/05/30 01:53:21;;;;;;;8.33;3.77;;;;;;;-145.69;100.00;52074.06;5055895;28;20206;-80
2023/05/30 01:55:52;;;;;;;5.63;3.40;;;;;;;-145.69;100.00;52068.13;5056149;28;20211;-80
2023/05/30 01:58:20;;;;;;;5.20;3.00;;;;;;;-145.69;100.00;52062.19;5055639;28;20257;-80
2023/05/30 02:00:50;;;;;;;9.77;3.57;;;;;;;-145.69;100.00;52038.44;5056488;28;20211;-80
2023/05/30 02:03:17;;;;;;;5.10;3.37;;;;;;;-145.69;100.00;52097.84;5064335;28;20206;-80
2023/05/30 02:05:43;;;;;;;12.17;3.63;;;;;;;-145.69;100.00;52048.31;5075496;28;20317;-80
2023/05/30 02:08:10;;;;;;;6.80;3.60;;;;;;;-145.69;100.00;52042.38;5075634;28;20264;-80
2023/05/30 02:10:36;;;;;;;8.13;4.00;;;;;;;-145.69;100.00;52062.19;5075757;28;20211;-79
2023/05/30 02:13:03;;;;;;;7.87;3.90;;;;;;;-145.69;100.00;52083.97;5063006;28;20203;-79
2023/05/30 02:15:29;;;;;;;6.10;3.33;;;;;;;-145.69;100.00;52070.09;5065796;28;20199;-80
2023/05/30 02:17:59;;;;;;;6.53;3.70;;;;;;;-145.69;100.00;52085.94;5074934;28;20211;-79
2023/05/30 02:20:25;;;;;;;13.93;3.73;;;;;;;-145.69;100.00;52070.09;5075290;28;20284;-80
2023/05/30 02:22:52;;;;;;;10.80;3.60;;;;;;;-145.69;100.00;52095.84;5075226;28;20530;-80
2023/05/30 02:25:19;;;;;;;5.87;3.50;;;;;;;-145.69;100.00;52060.22;5075388;28;20262;-80
2023/05/30 02:27:47;;;;;;;8.20;3.80;;;;;;;-145.69;100.00;52087.94;5062158;28;20234;-80
2023/05/30 02:30:14;;;;;;;5.63;3.40;;;;;;;-145.69;100.00;52103.78;5055275;28;20287;-80
2023/05/30 02:32:41;;;;;;;8.20;3.57;;;;;;;-145.69;100.00;52054.25;5071407;28;20687;-80
2023/05/30 02:35:09;;;;;;;6.43;3.60;;;;;;;-145.69;100.00;52080.00;5075181;28;20210;-80
2023/05/30 02:37:39;;;;;;;7.17;3.50;;;;;;;-145.69;100.00;52101.78;5075186;28;20210;-80
2023/05/30 02:40:07;;;;;;;8.03;3.10;;;;;;;-145.69;100.00;52062.19;5060583;28;20231;-80
2023/05/30 02:42:34;;;;;;;12.97;3.53;;;;;;;-145.69;100.00;52072.09;5054960;28;20686;-80
2023/05/30 02:45:01;;;;;;;6.13;3.60;;;;;;;-145.69;100.00;52103.78;5054870;28;20234;-81
2023/05/30 02:47:27;;;;;;;10.13;3.57;;;;;;;-145.69;100.00;52076.03;5054704;28;20261;-80
2023/05/30 02:49:56;;;;;;;7.37;3.50;;;;;;;-145.69;100.00;52083.97;5054500;28;20239;-81
2023/05/30 02:52:23;;;;;;;6.87;3.20;;;;;;;-145.69;100.00;52097.84;5069449;28;20553;-81
2023/05/30 02:54:51;;;;;;;6.10;3.43;;;;;;;-145.69;100.00;52048.31;5074804;28;20203;-81
2023/05/30 02:57:19;;;;;;;7.87;3.77;;;;;;;-145.69;100.00;52091.88;5074786;28;20195;-81
2023/05/30 02:59:45;;;;;;;7.93;3.60;;;;;;;-145.69;100.00;52046.34;5074825;28;20198;-80
2023/05/30 03:02:12;;;;;;;7.03;3.47;;;;;;;-145.69;100.00;52048.31;5061972;28;20257;-80
2023/05/30 03:04:38;;;;;;;7.97;3.67;;;;;;;-145.69;100.00;52068.13;5069843;28;20202;-80
2023/05/30 03:07:07;;;;;;;9.07;3.60;;;;;;;-145.69;100.00;52072.09;5064935;28;20693;-80
2023/05/30 03:09:35;;;;;;;9.27;3.40;;;;;;;-145.69;100.00;52064.16;5058931;28;20229;-81
2023/05/30 03:12:03;;;;;;;7.80;3.60;;;;;;;-145.69;100.00;52078.03;5074772;28;20195;-82
2023/05/30 03:14:30;;;;;;;6.83;3.60;;;;;;;-145.69;100.00;52056.25;5074086;28;20222;-81
2023/05/30 03:16:58;;;;;;;8.67;4.23;;;;;;;-145.69;100.00;52058.22;5073974;28;20202;-81
2023/05/30 03:19:24;;;;;;;7.70;3.67;;;;;;;-145.69;100.00;52080.00;5074324;28;20523;-80
2023/05/30 03:21:51;;;;;;;8.27;3.47;;;;;;;-145.69;100.00;52074.06;5074200;28;20206;-80
2023/05/30 03:24:18;;;;;;;9.10;3.70;;;;;;;-145.69;100.00;52087.94;5074519;28;20202;-82
2023/05/30 03:26:45;;;;;;;10.57;4.10;;;;;;;-145.69;100.00;52119.63;5074037;28;20227;-82
2023/05/30 03:29:12;;;;;;;9.07;3.37;;;;;;;-145.69;100.00;52083.97;5073131;28;20199;-81
2023/05/30 03:31:38;;;;;;;8.23;3.60;;;;;;;-145.69;100.00;52091.88;5067011;28;20282;-81
2023/05/30 03:34:05;;;;;;;8.50;3.77;;;;;;;-145.69;100.00;52083.97;5053790;28;20203;-82
2023/05/30 03:36:31;;;;;;;7.23;3.80;;;;;;;-145.69;100.00;52103.78;5053831;28;20223;-81
2023/05/30 03:38:58;;;;;;;7.07;3.67;;;;;;;-145.69;100.00;52074.06;5054108;28;20260;-81
2023/05/30 03:41:25;;;;;;;8.50;4.10;;;;;;;-145.69;100.00;52056.25;5072363;28;20214;-81
2023/05/30 03:43:53;;;;;;;7.37;3.70;;;;;;;-145.69;100.00;52115.66;5073711;28;20377;-81
2023/05/30 03:46:21;;;;;;;9.43;3.97;;;;;;;-145.69;100.00;52076.03;5073818;28;20272;-81
2023/05/30 03:48:48;;;;;;;7.73;4.03;;;;;;;-145.69;100.00;52074.06;5073543;28;20203;-81
2023/05/30 03:51:14;;;;;;;11.13;3.80;;;;;;;-145.69;100.00;52058.22;5071954;28;20229;-82
2023/05/30 03:53:42;;;;;;;8.60;3.50;;;;;;;-145.69;100.00;52060.22;5073403;28;20206;-81
2023/05/30 03:56:09;;;;;;;5.13;3.17;;;;;;;-145.69;100.00;52070.09;5073268;28;20202;-81
2023/05/30 03:58:36;;;;;;;6.47;3.67;;;;;;;-145.69;100.00;52095.84;5073708;28;20285;-80
2023/05/30 04:01:03;;;;;;;8.63;3.57;;;;;;;-145.69;100.00;52107.72;5072898;28;20221;-80
2023/05/30 04:03:30;;;;;;;10.13;3.60;;;;;;;-145.69;100.00;52083.97;5055124;28;20199;-81
2023/05/30 04:05:58;;;;;;;6.97;3.37;;;;;;;-145.69;100.00;52056.25;5053125;28;20223;-81
2023/05/30 04:08:25;;;;;;;6.70;3.70;;;;;;;-145.69;100.00;52036.44;5037666;28;20235;-81
2023/05/30 04:10:51;;;;;;;6.90;3.63;;;;;;;-145.69;100.00;52083.97;5033239;28;20559;-81
2023/05/30 04:13:18;;;;;;;7.40;3.57;;;;;;;-145.69;100.00;52052.28;5033308;28;20208;-81
2023/05/30 04:15:44;;;;;;;9.10;4.27;;;;;;;-145.69;100.00;52085.94;5043214;28;20194;-81
2023/05/30 04:18:12;;;;;;;6.33;3.80;;;;;;;-145.69;100.00;52068.13;5057377;28;20226;-81
2023/05/30 04:20:39;;;;;;;9.20;3.77;;;;;;;-145.69;100.00;52093.88;5048225;28;20196;-82
2023/05/30 04:23:05;;;;;;;7.10;3.77;;;;;;;-145.69;100.00;52048.31;5072652;28;20195;-81
2023/05/30 04:25:31;;;;;;;10.87;3.83;;;;;;;-145.69;100.00;52080.00;5073082;28;20268;-82
2023/05/30 04:27:58;;;;;;;9.67;3.17;;;;;;;-145.69;100.00;52087.94;5071161;28;20229;-81
2023/05/30 04:30:26;;;;;;;6.93;3.83;;;;;;;-145.69;100.00;52068.13;5072918;28;20301;-82
2023/05/30 04:32:55;;;;;;;6.47;3.57;;;;;;;-145.69;100.00;52028.53;5066020;28;20199;-82
2023/05/30 04:35:23;;;;;;;9.17;3.57;;;;;;;-145.69;100.00;52054.25;5064465;28;20653;-81
2023/05/30 04:37:50;;;;;;;7.47;3.40;;;;;;;-145.69;100.00;52070.09;5072931;28;20214;-81
2023/05/30 04:40:16;;;;;;;5.23;3.27;;;;;;;-145.69;100.00;52076.03;5072291;28;20289;-82
2023/05/30 04:42:43;;;;;;;5.33;3.03;;;;;;;-145.69;100.00;52089.91;5072928;28;20202;-82
2023/05/30 04:45:16;;;;;;;7.73;3.20;;;;;;;-145.69;100.00;52123.56;5063356;28;20195;-81
2023/05/30 04:47:45;;;;;;;6.23;3.17;;;;;;;-145.69;100.00;52052.28;5066784;28;20218;-81
2023/05/30 04:50:14;;;;;;;8.40;3.00;;;;;;;-145.69;100.00;52103.78;5072705;28;20234;-82
2023/05/30 04:52:41;;;;;;;8.70;4.00;;;;;;;-145.69;100.00;52050.31;5072716;28;20657;-81
2023/05/30 04:55:09;;;;;;;10.13;3.90;;;;;;;-145.69;100.00;52052.28;5071794;28;20195;-82
2023/05/30 04:57:37;;;;;;;12.97;3.87;;;;;;;-145.69;100.00;52056.25;5072156;28;20206;-81
2023/05/30 05:00:09;;;;;;;4.63;3.07;;;;;;;-145.69;100.00;52087.94;5072783;28;20213;-82
2023/05/30 05:02:38;;;;;;;5.60;3.07;;;;;;;-145.69;100.00;52064.16;5072802;28;20199;-82
2023/05/30 05:05:05;;;;;;;6.90;3.67;;;;;;;-145.69;100.00;52068.13;5061039;28;20777;-82
2023/05/30 05:07:32;;;;;;;6.07;3.10;;;;;;;-145.69;100.00;52046.34;5052761;28;20289;-83
2023/05/30 05:10:00;;;;;;;9.43;3.47;;;;;;;-145.69;100.00;52076.03;5052663;28;20195;-82
2023/05/30 05:12:26;;;;;;;8.07;3.63;;;;;;;-145.69;100.00;52072.09;5064492;28;20198;-82
2023/05/30 05:14:55;;;;;;;7.00;3.97;;;;;;;-145.69;100.00;52052.28;5072796;28;20209;-82
2023/05/30 05:17:21;;;;;;;7.20;3.53;;;;;;;-145.69;100.00;52068.13;5072527;28;20248;-82
2023/05/30 05:19:48;;;;;;;11.17;4.03;;;;;;;-145.69;100.00;52028.53;5072565;28;20213;-81
2023/05/30 05:22:14;;;;;;;6.47;4.47;;;;;;;-145.69;100.00;52052.28;5062602;28;20206;-81
2023/05/30 05:24:40;;;;;;;9.37;4.77;;;;;;;-145.69;100.00;52105.75;5053992;28;20551;-82
2023/05/30 05:27:08;;;;;;;9.20;4.23;;;;;;;-145.69;100.00;52042.38;5072355;28;20628;-81
2023/05/30 05:29:35;;;;;;;10.83;4.53;;;;;;;-145.69;100.00;52080.00;5072518;28;20211;-81
2023/05/30 05:32:01;;;;;;;9.47;3.80;;;;;;;-145.69;100.00;52087.94;5072287;28;20234;-81
2023/05/30 05:34:28;;;;;;;10.53;4.37;;;;;;;-145.69;100.00;52032.47;5064758;28;20188;-82
2023/05/30 05:36:54;;;;;;;12.00;4.87;;;;;;;-145.69;100.00;52016.66;5052474;28;20207;-83
2023/05/30 05:39:21;;;;;;;7.70;4.40;;;;;;;-145.69;100.00;52072.09;5052286;28;20199;-82
2023/05/30 05:41:47;;;;;;;8.80;4.40;;;;;;;-145.69;100.00;52060.22;5052288;28;20203;-81
2023/05/30 05:44:15;;;;;;;9.23;4.40;;;;;;;-145.69;100.00;52068.13;5052316;28;20220;-81
2023/05/30 05:46:41;;;;;;;10.15;4.50;;;;;;;-145.69;100.00;52050.31;5056905;28;20215;-83
2023/05/30 05:49:08;;;;;;;13.93;4.75;;;;;;;-145.69;100.00;52040.41;5056806;28;20227;-81
2023/05/30 05:51:36;;;;;;;8.50;4.55;;;;;;;-145.69;100.00;52018.63;5073435;28;20206;-82
2023/05/30 05:54:03;;;;;;;9.10;4.38;;;;;;;-145.69;99.69;52002.78;5075855;28;20230;-82
2023/05/30 05:56:29;;;;;;;8.25;4.45;;;;;;;-145.69;98.43;52020.59;5060062;28;20543;-82
2023/05/30 05:58:55;;;;;;;9.07;4.35;;;;;;;-145.69;98.21;52008.72;5055972;28;20210;-82
2023/05/30 06:01:23;;;;;;;9.60;4.53;;;;;;;-145.69;100.00;52026.53;5070815;28;20454;-82
2023/05/30 06:03:50;;;;;;;9.32;4.05;;;;;;;-145.69;98.41;52028.53;5075900;28;20658;-82
2023/05/30 06:06:16;;;;;;;7.75;4.30;;;;;;;-145.69;96.11;52016.66;5075719;28;20260;-82
2023/05/30 06:08:46;;;;;;;7.70;4.53;;;;;;;-145.69;96.98;52034.47;5075731;28;20210;-83
2023/05/30 06:11:13;;;;;;;8.65;4.65;;;;;;;-145.69;97.89;52008.72;5075366;28;20206;-84
2023/05/30 06:13:39;;;;;;;9.20;4.13;;;;;;;-145.69;97.67;52008.72;5060744;28;20206;-82
2023/05/30 06:16:06;;;;;;;6.47;3.92;;;;;;;-145.69;92.66;52000.81;5056658;28;20281;-81
2023/05/30 06:18:34;;;;;;;6.68;4.13;;;;;;;-145.69;91.42;52008.72;5047249;28;20207;-81
2023/05/30 06:21:00;;;;;;;6.07;3.45;;;;;;;-145.69;93.89;52004.75;5035620;28;20601;-82
2023/05/30 06:23:27;;;;;;;10.95;4.40;;;;;;;-145.69;92.70;52030.50;5035334;28;20200;-82
2023/05/30 06:25:53;;;;;;;7.38;4.18;;;;;;;-145.69;94.07;52000.81;5035488;28;20242;-81
2023/05/30 06:28:21;;;;;;;8.60;4.18;;;;;;;-145.69;91.86;52048.31;5072117;28;20558;-81
2023/05/30 06:30:47;;;;;;;11.25;4.13;;;;;;;-145.69;93.35;52020.59;5075460;28;20268;-81
2023/05/30 06:33:14;;;;;;;6.57;3.72;;;;;;;-145.69;94.09;52024.56;5075468;28;20203;-80
2023/05/30 06:35:41;;;;;;;7.85;3.80;;;;;;;-145.69;92.10;52016.66;5075073;28;20252;-81
2023/05/30 06:38:08;;;;;;;8.90;4.40;;;;;;;-145.69;91.49;51967.13;5073137;28;20202;-80
2023/05/30 06:40:34;;;;;;;11.25;3.80;;;;;;;-145.69;95.31;51977.03;5064537;28;20231;-80
2023/05/30 06:43:01;;;;;;;9.82;4.13;;;;;;;-145.69;88.26;51986.94;5071415;28;20674;-81
2023/05/30 06:45:27;;;;;;;6.65;3.75;;;;;;;-145.69;82.04;51973.06;5075118;28;20213;-81
2023/05/30 06:47:54;;;;;;;6.55;4.13;;;;;;;-145.69;83.37;52014.66;5073329;28;20226;-81
2023/05/30 06:50:20;;;;;;;7.28;3.80;;;;;;;-145.69;85.60;51986.94;5074955;28;20227;-81
2023/05/30 06:52:48;;;;;;;7.28;4.10;;;;;;;-145.69;76.43;52024.56;5061219;28;20253;-81
2023/05/30 06:55:15;;;;;;;7.32;3.80;;;;;;;-145.69;77.66;51994.88;5058088;28;20191;-81
2023/05/30 06:57:43;;;;;;;10.30;3.97;;;;;;;-145.69;72.44;51971.09;5074700;28;20733;-81
2023/05/30 07:00:11;;;;;;;15.13;5.97;;;;;;;-145.69;70.97;51945.34;5074960;28;20293;-81
2023/05/30 07:02:37;;;;;;;8.68;4.45;;;;;;;-145.69;73.59;52016.66;5068798;28;20196;-81
2023/05/30 07:05:05;;;;;;;9.45;4.18;;;;;;;-145.69;71.53;51977.03;5056004;28;20200;-83
2023/05/30 07:07:31;;;;;;;7.82;4.18;;;;;;;-145.69;76.75;52002.78;5074354;28;20230;-82
2023/05/30 07:09:59;;;;;;;9.77;3.95;;;;;;;-145.69;79.26;51973.06;5074536;28;20272;-83
2023/05/30 07:12:25;;;;;;;13.20;4.45;;;;;;;-145.69;79.92;52004.75;5069737;28;20203;-85
2023/05/30 07:14:52;;;;;;;8.38;4.32;;;;;;;-145.69;80.00;52010.69;5074758;28;20562;-82
2023/05/30 07:17:18;;;;;;;8.90;4.15;;;;;;;-145.69;79.44;52024.56;5074072;28;20195;-85
2023/05/30 07:19:45;;;;;;;10.48;4.43;;;;;;;-145.69;81.14;51996.84;5074505;28;20206;-84
2023/05/30 07:22:11;;;;;;;8.10;4.25;;;;;;;-145.69;79.84;51982.97;5057301;28;20551;-84
2023/05/30 07:24:38;;;;;;;7.93;4.30;;;;;;;-145.69;78.28;51990.91;5054385;28;20241;-83
2023/05/30 07:27:06;;;;;;;9.52;4.18;;;;;;;-145.69;79.06;51996.84;5053871;28;20223;-82
2023/05/30 07:29:33;;;;;;;9.65;4.03;;;;;;;-145.69;80.20;51984.97;5055851;28;20195;-82
2023/05/30 07:31:59;;;;;;;7.55;3.70;;;;;;;-145.69;76.64;51998.81;5054020;28;20196;-82
2023/05/30 07:34:26;;;;;;;7.32;3.85;;;;;;;-145.69;77.35;52024.56;5053894;28;20195;-83
2023/05/30 07:36:52;;;;;;;10.88;3.83;;;;;;;-145.69;76.68;51994.88;5054249;28;20199;-80
2023/05/30 07:39:19;;;;;;;8.02;4.35;;;;;;;-145.69;75.99;51977.03;5070682;28;20253;-85
2023/05/30 07:41:45;;;;;;;9.80;3.97;;;;;;;-145.69;76.80;52000.81;5059746;28;20819;-86
2023/05/30 07:44:13;;;;;;;9.95;3.90;;;;;;;-145.69;76.21;51986.94;5055961;28;20199;-81
2023/05/30 07:46:39;;;;;;;7.85;4.20;;;;;;;-145.69;75.92;51981.00;5056458;28;20195;-89
2023/05/30 07:49:06;;;;;;;14.82;4.32;;;;;;;-145.69;78.06;51982.97;5055230;28;20246;-87
2023/05/30 07:51:32;;;;;;;12.95;5.03;;;;;;;-145.69;76.49;51982.97;5055906;28;20191;-91
2023/05/30 07:53:59;;;;;;;11.88;4.25;;;;;;;-145.69;77.41;52000.81;5056462;28;20222;-89
2023/05/30 07:56:26;;;;;;;6.55;3.70;;;;;;;-145.69;74.61;51984.97;5056558;28;20203;-84
2023/05/30 07:58:52;;;;;;;9.20;4.80;;;;;;;-145.69;73.10;51953.28;5053756;28;20211;-86
2023/05/30 08:01:20;;;;;;;8.50;4.05;;;;;;;-145.69;67.18;51969.13;5055465;28;20200;-87
2023/05/30 08:03:47;;;;;;;10.75;4.20;;;;;;;-145.69;66.54;51965.16;5067874;28;20210;-87
2023/05/30 08:06:13;;;;;;;9.13;4.35;;;;;;;-145.69;70.19;51981.00;5075567;28;20203;-90
2023/05/30 08:08:39;;;;;;;9.80;4.28;;;;;;;-145.69;63.88;51949.31;5062518;28;20227;-89
2023/05/30 08:11:06;;;;;;;10.80;4.13;;;;;;;-145.69;65.11;51945.34;5054097;28;20238;-85
2023/05/30 08:13:32;;;;;;;6.68;3.88;;;;;;;-145.69;68.15;51965.16;5051691;28;20203;-88
2023/05/30 08:15:59;;;;;;;8.75;4.65;;;;;;;-145.69;66.36;51990.91;5055241;28;20203;-88
2023/05/30 08:18:30;;;;;;;7.78;4.03;;;;;;;-145.69;72.17;52012.69;5056132;28;20211;-90
2023/05/30 08:20:56;;;;;;;11.43;4.70;;;;;;;-145.69;68.47;51951.28;5055218;28;20283;-85
2023/05/30 08:23:23;;;;;;;8.82;4.72;;;;;;;-145.69;70.68;51955.25;5035524;28;20207;-87
2023/05/30 08:25:50;;;;;;;10.07;4.32;;;;;;;-145.69;70.49;51984.97;5035575;28;20250;-84
2023/05/30 08:28:17;;;;;;;11.57;4.35;;;;;;;-145.69;74.61;51945.34;5062607;28;20223;-87
2023/05/30 08:30:48;;;;;;;8.68;4.65;;;;;;;-145.69;72.68;51953.28;5073676;28;20213;-85
2023/05/30 08:33:15;;;;;;;10.48;4.72;;;;;;;-145.69;67.57;51984.97;5074328;28;20265;-86
2023/05/30 08:35:44;;;;;;;11.95;5.07;;;;;;;-145.69;68.96;51977.03;5074276;28;20293;-87
2023/05/30 08:38:11;;;;;;;12.40;4.43;;;;;;;-145.69;68.97;51965.16;5073556;28;20198;-87
2023/05/30 08:40:41;;;;;;;12.95;4.72;;;;;;;-145.69;72.21;51986.94;5074028;28;20202;-81
2023/05/30 08:43:08;;;;;;;13.73;4.70;;;;;;;-145.69;72.49;51941.41;5054287;28;20401;-80
2023/05/30 08:45:34;;;;;;;8.73;4.40;;;;;;;-145.69;74.42;51984.97;5053407;28;20249;-86
2023/05/30 08:48:02;;;;;;;16.50;4.80;;;;;;;-145.69;74.89;51973.06;5053083;28;20223;-86
2023/05/30 08:50:31;;;;;;;11.70;4.63;;;;;;;-145.69;70.86;51955.25;5052239;28;20326;-85
2023/05/30 08:53:09;;;;;;;9.10;4.35;;;;;;;-145.69;74.09;51992.88;5073673;28;20213;-88
2023/05/30 08:55:40;;;;;;;8.07;4.30;;;;;;;-145.69;71.94;51975.06;5073689;28;20737;-85
2023/05/30 08:58:11;;;;;;;21.02;4.35;;;;;;;-145.69;72.91;51937.44;5073936;28;20706;-85
2023/05/30 09:00:38;;;;;;;11.98;4.53;;;;;;;-145.69;72.84;51965.16;5071914;28;20199;-85
2023/05/30 09:03:06;;;;;;;13.85;4.20;;;;;;;-145.69;71.57;51941.41;5073861;28;20199;-87
2023/05/30 09:05:34;;;;;;;9.68;4.35;;;;;;;-145.69;69.00;51945.34;5073638;28;20803;-85
2023/05/30 09:08:03;;;;;;;9.27;4.43;;;;;;;-145.69;69.41;51973.06;5073253;28;20241;-80
2023/05/30 09:10:30;;;;;;;8.50;4.18;;;;;;;-145.69;69.35;51957.25;5073604;28;20199;-87
2023/05/30 09:12:58;;;;;;;10.82;3.97;;;;;;;-145.69;70.31;51973.06;5057466;28;20187;-84
2023/05/30 09:15:25;;;;;;;17.55;5.93;;;;;;;-145.69;70.97;51973.06;5054231;28;20196;-84
2023/05/30 09:17:53;;;;;;;7.95;4.05;;;;;;;-145.69;72.04;51963.19;5053243;28;20602;-85
2023/05/30 09:20:23;;;;;;;10.40;4.35;;;;;;;-145.69;69.41;51949.31;5053371;28;20562;-85
2023/05/30 09:22:53;;;;;;;12.88;4.90;;;;;;;-145.69;67.13;51933.47;5064631;28;20216;-87
2023/05/30 09:25:21;;;;;;;10.88;4.43;;;;;;;-145.69;69.11;51927.53;5074626;28;20308;-83
2023/05/30 09:27:54;;;;;;;11.02;4.03;;;;;;;-145.69;69.82;51977.03;5077585;28;20279;-88
2023/05/30 09:30:20;;;;;;;10.38;4.50;;;;;;;-145.69;67.49;51949.31;5077720;28;20198;-86
2023/05/30 09:33:01;;;;;;;8.35;4.28;;;;;;;-145.69;66.55;51947.34;5076418;28;20249;-86
2023/05/30 09:35:27;;;;;;;10.02;4.60;;;;;;;-145.69;67.00;51971.09;5075718;28;20199;-81
2023/05/30 09:37:54;;;;;;;11.52;4.95;;;;;;;-145.69;65.19;51955.25;5056917;28;20585;-86
2023/05/30 09:40:24;;;;;;;9.82;4.10;;;;;;;-145.69;66.93;51965.16;5057252;28;20206;-80
2023/05/30 09:42:52;;;;;;;10.60;4.13;;;;;;;-145.69;69.52;51981.00;5076650;28;20253;-83
2023/05/30 09:45:21;;;;;;;9.35;4.50;;;;;;;-145.69;65.28;51965.16;5076523;28;20211;-86
2023/05/30 09:47:49;;;;;;;8.88;4.53;;;;;;;-145.69;70.75;51951.28;5075725;28;20306;-83
2023/05/30 09:50:17;;;;;;;13.65;4.80;;;;;;;-145.69;66.60;51949.31;5076080;28;20754;-83
2023/05/30 09:52:44;;;;;;;10.43;4.60;;;;;;;-145.69;73.02;51965.16;5074388;28;20253;-89
2023/05/30 09:55:13;;;;;;;9.43;4.55;;;;;;;-145.69;69.51;51973.06;5056997;28;20191;-83
2023/05/30 09:57:45;;;;;;;9.60;4.38;;;;;;;-145.69;67.49;51967.13;5056571;28;20199;-82
2023/05/30 10:00:15;;;;;;;13.45;4.60;;;;;;;-145.69;68.86;51977.03;5056380;28;20724;-83
2023/05/30 10:02:43;;;;;;;9.85;4.63;;;;;;;-145.69;70.29;51981.00;5070365;28;20191;-88
2023/05/30 10:05:19;;;;;;;15.52;4.32;;;;;;;-145.69;69.04;51973.06;5076427;28;20202;-83
2023/05/30 10:07:52;;;;;;;11.05;4.18;;;;;;;-145.69;71.77;51957.25;5076805;28;20324;-87
2023/05/30 10:10:19;;;;;;;7.97;4.28;;;;;;;-145.69;63.91;51971.09;5076281;28;20207;-85
2023/05/30 10:12:49;;;;;;;11.65;4.15;;;;;;;-145.69;70.16;51949.31;5073809;28;20195;-79
2023/05/30 10:15:16;;;;;;;9.57;4.38;;;;;;;-145.69;64.31;51957.25;5076287;28;20203;-79
2023/05/30 10:17:48;;;;;;;10.43;4.20;;;;;;;-145.69;65.17;51986.94;5076128;28;20676;-87
2023/05/30 10:20:17;;;;;;;11.13;4.50;;;;;;;-145.69;66.90;51937.44;5074595;28;20211;-85
2023/05/30 10:22:45;;;;;;;15.77;4.28;;;;;;;-145.69;70.84;51955.25;5075999;28;20235;-86
2023/05/30 10:25:13;;;;;;;16.25;4.75;;;;;;;-145.69;67.84;51955.25;5076177;28;20653;-84
2023/05/30 10:27:47;;;;;;;15.25;4.45;;;;;;;-145.69;68.40;51967.13;5049787;28;20250;-86
2023/05/30 10:30:23;;;;;;;10.65;4.07;;;;;;;-145.69;67.65;51961.19;5053442;28;20671;-83
2023/05/30 10:32:58;;;;;;;15.45;4.93;;;;;;;-145.69;62.18;51984.97;5075985;28;20198;-88
2023/05/30 10:35:26;;;;;;;11.50;4.53;;;;;;;-145.69;63.87;51957.25;5076213;28;20191;-86
2023/05/30 10:37:53;;;;;;;9.88;3.90;;;;;;;-145.69;64.71;51994.88;5074707;28;20256;-86
2023/05/30 10:40:30;;;;;;;13.40;4.47;;;;;;;-145.69;66.13;51921.59;5073639;28;20267;-89
2023/05/30 10:43:07;;;;;;;9.88;3.58;;;;;;;-145.69;67.08;51949.31;5057029;28;20219;-86
2023/05/30 10:45:47;;;;;;;14.27;4.22;;;;;;;-145.69;64.91;51959.22;5055087;28;20203;-89
2023/05/30 10:48:22;;;;;;;9.95;3.92;;;;;;;-145.69;66.59;51947.34;5056209;28;20625;-84
2023/05/30 10:50:54;;;;;;;13.80;4.45;;;;;;;-145.69;61.71;51963.19;5061938;28;20740;-86
2023/05/30 10:53:21;;;;;;;9.15;4.18;;;;;;;-145.69;60.43;51945.34;5038147;28;20606;-83
2023/05/30 10:55:50;;;;;;;13.52;4.57;;;;;;;-145.69;60.64;51943.38;5074633;28;20809;-80
2023/05/30 10:58:35;;;;;;;8.68;3.55;;;;;;;-145.69;62.35;51933.47;5076010;28;20721;-82
2023/05/30 11:01:25;;;;;;;8.77;3.60;;;;;;;-145.69;60.30;51925.56;5076548;28;20285;-89
2023/05/30 11:03:57;;;;;;;8.20;4.00;;;;;;;-145.69;58.33;51967.13;5075059;28;20600;-84
2023/05/30 11:06:25;;;;;;;7.55;3.65;;;;;;;-145.69;55.59;51945.34;5075711;28;20203;-87
2023/05/30 11:08:53;;;;;;;8.85;4.00;;;;;;;-145.69;58.22;51943.38;5065138;28;20285;-89
2023/05/30 11:11:21;;;;;;;7.80;3.55;;;;;;;-145.69;61.29;51939.41;5065437;28;20225;-77
2023/05/30 11:13:50;;;;;;;8.05;3.63;;;;;;;-145.69;54.63;51925.56;5055363;28;20199;-81
2023/05/30 11:16:25;;;;;;;9.27;3.90;;;;;;;-145.69;58.68;51931.50;5054956;28;20257;-80